createdAt,value
2017-12-01T00:01:49.993Z,5.43
2017-12-01T00:04:17.560Z,5.35
2017-12-01T00:06:45.098Z,11.70
2017-12-01T00:09:12.677Z,10.35
2017-12-01T00:11:40.208Z,6.22
2017-12-01T00:14:07.740Z,5.60
2017-12-01T00:16:36.077Z,6.97
2017-12-01T00:19:03.605Z,7.15
2017-12-01T00:21:31.185Z,9.88
2017-12-01T00:23:58.716Z,5.18
2017-12-01T00:26:26.283Z,7.80
2017-12-01T00:28:53.837Z,6.43
2017-12-01T00:31:21.400Z,7.40
2017-12-01T00:33:48.933Z,7.32
2017-12-01T00:36:17.265Z,5.37
2017-12-01T00:38:44.792Z,5.70
2017-12-01T00:41:12.362Z,9.90
2017-12-01T00:43:39.888Z,6.25
2017-12-01T00:46:08.224Z,6.32
2017-12-01T00:48:35.866Z,5.57
2017-12-01T00:53:54.859Z,7.00
2017-12-01T00:56:22.385Z,5.37
2017-12-01T00:58:49.911Z,5.00
2017-12-01T01:01:17.488Z,4.68
2017-12-01T01:03:45.775Z,4.22
2017-12-01T01:06:13.303Z,5.60
2017-12-01T01:08:40.868Z,4.35
2017-12-01T01:11:09.199Z,6.55
2017-12-01T01:13:36.724Z,8.43
2017-12-01T01:16:05.051Z,4.50
2017-12-01T01:18:32.621Z,5.93
2017-12-01T01:21:00.211Z,4.57
2017-12-01T01:23:28.499Z,6.40
2017-12-01T01:25:56.794Z,4.35
2017-12-01T01:28:24.353Z,5.25
2017-12-01T01:30:51.881Z,7.75
2017-12-01T01:33:19.469Z,5.43
2017-12-01T01:35:46.992Z,5.12
2017-12-01T01:38:14.563Z,5.90
2017-12-01T01:40:42.859Z,4.90
2017-12-01T01:43:10.386Z,5.35
2017-12-01T01:45:37.949Z,5.47
2017-12-01T01:48:05.483Z,6.05
2017-12-01T01:50:33.050Z,5.40
2017-12-01T01:53:00.579Z,6.78
2017-12-01T01:55:28.137Z,3.97
2017-12-01T01:57:55.664Z,5.80
2017-12-01T02:00:24.001Z,5.15
2017-12-01T02:02:51.530Z,5.57
2017-12-01T02:05:19.057Z,8.07
2017-12-01T02:07:47.390Z,5.00
2017-12-01T02:10:14.912Z,5.40
2017-12-01T02:12:42.477Z,5.22
2017-12-01T02:15:10.041Z,8.90
2017-12-01T02:17:37.610Z,5.57
2017-12-01T02:20:05.139Z,9.32
2017-12-01T02:22:33.467Z,7.15
2017-12-01T02:25:00.997Z,9.18
2017-12-01T02:27:28.664Z,21.27
2017-12-01T02:29:56.231Z,20.58
2017-12-01T02:32:23.760Z,21.65
2017-12-01T02:34:51.351Z,20.70
2017-12-01T02:37:18.887Z,20.25
2017-12-01T02:39:46.416Z,14.55
2017-12-01T02:42:14.752Z,15.80
2017-12-01T02:44:42.285Z,14.27
2017-12-01T02:47:09.903Z,15.10
2017-12-01T02:49:37.422Z,13.57
2017-12-01T02:52:04.957Z,11.63
2017-12-01T02:54:32.540Z,9.15
2017-12-01T02:57:00.073Z,10.88
2017-12-01T02:59:27.732Z,10.27
2017-12-01T03:01:56.138Z,9.25
2017-12-01T03:04:23.668Z,10.90
2017-12-01T03:06:52.092Z,9.65
2017-12-01T03:09:19.622Z,10.07
2017-12-01T03:11:47.197Z,10.13
2017-12-01T03:14:14.725Z,7.55
2017-12-01T03:16:43.058Z,8.20
2017-12-01T03:19:10.585Z,7.47
2017-12-01T03:21:38.149Z,7.68
2017-12-01T03:24:05.687Z,6.53
2017-12-01T03:26:33.258Z,7.12
2017-12-01T03:29:00.811Z,6.57
2017-12-01T03:31:28.340Z,9.68
2017-12-01T03:33:56.679Z,9.35
2017-12-01T03:36:24.211Z,11.52
2017-12-01T03:38:51.785Z,11.45
2017-12-01T03:41:19.360Z,14.63
2017-12-01T03:43:46.897Z,15.60
2017-12-01T03:46:14.485Z,10.30
2017-12-01T03:48:42.014Z,8.50
2017-12-01T03:51:09.541Z,7.75
2017-12-01T03:53:37.873Z,6.87
2017-12-01T03:56:05.404Z,6.45
2017-12-01T03:58:32.960Z,5.05
2017-12-01T04:01:00.520Z,6.80
2017-12-01T04:03:28.084Z,5.95
2017-12-01T04:05:55.650Z,7.05
2017-12-01T04:08:23.172Z,6.55
2017-12-01T04:10:51.524Z,7.47
2017-12-01T04:13:19.089Z,7.60
2017-12-01T04:15:46.671Z,6.93
2017-12-01T04:18:14.968Z,6.20
2017-12-01T04:20:42.497Z,6.20
2017-12-01T04:23:10.073Z,6.75
2017-12-01T04:25:38.378Z,7.28
2017-12-01T04:28:05.909Z,6.45
2017-12-01T04:30:34.240Z,7.55
2017-12-01T04:33:01.781Z,7.50
2017-12-01T04:35:29.347Z,8.18
2017-12-01T04:37:56.877Z,7.12
2017-12-01T04:40:24.452Z,4.72
2017-12-01T04:42:51.986Z,6.20
2017-12-01T04:45:20.317Z,7.62
2017-12-01T04:47:47.879Z,8.43
2017-12-01T04:50:15.405Z,6.82
2017-12-01T04:52:43.092Z,8.88
2017-12-01T04:55:10.623Z,7.00
2017-12-01T04:57:38.149Z,5.75
2017-12-01T05:00:05.712Z,5.07
2017-12-01T05:02:34.009Z,6.78
2017-12-01T05:05:01.576Z,5.62
2017-12-01T05:07:29.107Z,10.10
2017-12-01T05:09:57.430Z,7.72
2017-12-01T05:12:24.990Z,8.40
2017-12-01T05:14:52.553Z,5.55
2017-12-01T05:17:20.122Z,6.07
2017-12-01T05:19:47.644Z,5.10
2017-12-01T05:22:15.209Z,6.70
2017-12-01T05:24:42.755Z,8.82
2017-12-01T05:27:11.165Z,7.10
2017-12-01T05:29:38.692Z,6.85
2017-12-01T05:32:06.988Z,6.62
2017-12-01T05:34:34.560Z,9.38
2017-12-01T05:37:02.090Z,7.00
2017-12-01T05:39:30.419Z,8.48
2017-12-01T05:41:57.983Z,8.57
2017-12-01T05:44:25.555Z,8.50
2017-12-01T05:46:53.087Z,6.82
2017-12-01T05:49:20.618Z,6.93
2017-12-01T05:51:48.180Z,8.13
2017-12-01T05:54:15.703Z,6.70
2017-12-01T05:56:44.048Z,7.05
2017-12-01T05:59:11.604Z,7.50
2017-12-01T06:01:39.140Z,8.88
2017-12-01T06:04:06.709Z,7.53
2017-12-01T06:06:34.365Z,7.53
2017-12-01T06:09:01.900Z,6.20
2017-12-01T06:11:30.197Z,6.32
2017-12-01T06:13:57.765Z,6.20
2017-12-01T06:16:25.288Z,6.25
2017-12-01T06:18:53.616Z,6.90
2017-12-01T06:21:21.184Z,5.70
2017-12-01T06:23:48.719Z,10.43
2017-12-01T06:26:16.290Z,7.82
2017-12-01T06:28:43.853Z,8.40
2017-12-01T06:31:11.424Z,11.12
2017-12-01T06:33:38.992Z,15.18
2017-12-01T06:36:06.532Z,9.45
2017-12-01T06:38:34.309Z,9.68
2017-12-01T06:41:01.948Z,10.45
2017-12-01T06:43:29.476Z,9.32
2017-12-01T06:45:59.802Z,10.93
2017-12-01T06:48:27.345Z,9.25
2017-12-01T06:50:55.636Z,7.75
2017-12-01T06:53:23.962Z,10.13
2017-12-01T06:55:51.509Z,10.95
2017-12-01T06:58:19.087Z,7.78
2017-12-01T07:00:46.615Z,7.62
2017-12-01T07:03:14.185Z,9.80
2017-12-01T07:05:41.960Z,9.52
2017-12-01T07:08:09.526Z,8.13
2017-12-01T07:10:37.061Z,8.05
2017-12-01T07:13:04.640Z,8.98
2017-12-01T07:15:32.179Z,7.00
2017-12-01T07:17:59.846Z,9.18
2017-12-01T07:20:27.437Z,12.23
2017-12-01T07:22:55.084Z,12.18
2017-12-01T07:25:22.617Z,10.20
2017-12-01T07:27:50.181Z,11.32
2017-12-01T07:30:17.761Z,9.27
2017-12-01T07:32:45.295Z,9.00
2017-12-01T07:35:12.889Z,9.15
2017-12-01T07:37:40.446Z,10.88
2017-12-01T07:40:08.014Z,9.60
2017-12-01T07:42:35.544Z,12.85
2017-12-01T07:45:19.939Z,13.77
2017-12-01T07:47:47.498Z,12.02
2017-12-01T07:50:15.109Z,10.20
2017-12-01T07:52:42.642Z,17.15
2017-12-01T07:55:10.980Z,12.15
2017-12-01T07:57:38.536Z,11.07
2017-12-01T08:00:06.073Z,19.90
2017-12-01T08:02:33.650Z,10.07
2017-12-01T08:05:01.184Z,11.43
2017-12-01T08:07:29.691Z,16.70
2017-12-01T08:09:57.244Z,8.57
2017-12-01T08:12:24.831Z,13.30
2017-12-01T08:14:52.367Z,10.55
2017-12-01T08:17:29.681Z,11.20
2017-12-01T08:19:57.207Z,9.52
2017-12-01T08:22:36.749Z,10.35
2017-12-01T08:25:16.359Z,12.13
2017-12-01T08:27:43.927Z,13.20
2017-12-01T08:30:11.455Z,14.70
2017-12-01T08:32:39.810Z,9.93
2017-12-01T08:35:07.358Z,11.38
2017-12-01T08:37:35.002Z,13.40
2017-12-01T08:40:02.538Z,8.40
2017-12-01T08:42:30.211Z,12.37
2017-12-01T08:44:57.760Z,17.12
2017-12-01T08:47:25.323Z,9.40
2017-12-01T08:49:52.869Z,14.55
2017-12-01T08:52:21.216Z,12.48
2017-12-01T08:54:48.751Z,13.13
2017-12-01T08:57:16.359Z,16.35
2017-12-01T08:59:44.648Z,11.15
2017-12-01T09:02:12.980Z,9.55
2017-12-01T09:04:40.516Z,11.57
2017-12-01T09:07:08.108Z,12.10
2017-12-01T09:09:35.646Z,13.00
2017-12-01T09:12:03.228Z,7.87
2017-12-01T09:14:31.549Z,19.10
2017-12-01T09:16:59.153Z,8.73
2017-12-01T09:19:26.683Z,8.35
2017-12-01T09:21:54.284Z,6.72
2017-12-01T09:24:21.822Z,7.15
2017-12-01T09:26:49.421Z,7.60
2017-12-01T09:29:17.770Z,15.32
2017-12-01T09:31:45.347Z,12.15
2017-12-01T09:34:12.897Z,12.23
2017-12-01T09:36:40.481Z,11.55
2017-12-01T09:39:08.779Z,9.90
2017-12-01T09:41:36.384Z,6.70
2017-12-01T09:44:03.942Z,7.35
2017-12-01T09:46:31.545Z,13.73
2017-12-01T09:48:59.843Z,10.05
2017-12-01T09:51:27.461Z,9.05
2017-12-01T09:53:54.996Z,6.93
2017-12-01T09:56:22.572Z,10.73
2017-12-01T09:58:50.102Z,10.45
2017-12-01T10:01:17.672Z,12.63
2017-12-01T10:03:45.205Z,8.35
2017-12-01T10:06:12.800Z,8.25
2017-12-01T10:08:40.336Z,12.37
2017-12-01T10:11:07.860Z,9.30
2017-12-01T10:13:36.201Z,13.05
2017-12-01T10:16:03.788Z,7.95
2017-12-01T10:18:32.099Z,7.47
2017-12-01T10:20:59.676Z,9.65
2017-12-01T10:23:27.216Z,11.35
2017-12-01T10:25:54.814Z,6.32
2017-12-01T10:28:22.348Z,8.63
2017-12-01T10:30:49.925Z,8.30
2017-12-01T10:33:17.605Z,8.43
2017-12-01T10:35:45.195Z,8.48
2017-12-01T10:38:13.523Z,13.20
2017-12-01T10:40:41.102Z,7.53
2017-12-01T10:43:08.632Z,8.48
2017-12-01T10:45:36.209Z,9.75
2017-12-01T10:48:03.748Z,8.45
2017-12-01T10:50:31.319Z,10.32
2017-12-01T10:52:58.892Z,6.40
2017-12-01T10:55:26.427Z,6.80
2017-12-01T10:57:54.012Z,10.20
2017-12-01T11:00:21.554Z,9.77
2017-12-01T11:02:49.130Z,7.03
2017-12-01T11:05:16.664Z,7.45
2017-12-01T11:07:44.240Z,9.55
2017-12-01T11:10:11.769Z,7.28
2017-12-01T11:12:39.345Z,8.75
2017-12-01T11:15:06.882Z,8.02
2017-12-01T11:17:34.464Z,10.73
2017-12-01T11:20:01.997Z,6.37
2017-12-01T11:22:29.572Z,10.88
2017-12-01T11:24:57.094Z,8.52
2017-12-01T11:27:24.703Z,6.62
2017-12-01T11:29:52.289Z,10.07
2017-12-01T11:32:19.824Z,6.45
2017-12-01T11:34:47.405Z,7.07
2017-12-01T11:37:14.939Z,7.75
2017-12-01T11:39:42.514Z,9.57
2017-12-01T11:42:10.045Z,8.00
2017-12-01T11:44:37.620Z,6.78
2017-12-01T11:47:05.148Z,7.12
2017-12-01T11:49:33.484Z,8.55
2017-12-01T11:52:01.009Z,6.87
2017-12-01T11:54:28.588Z,10.05
2017-12-01T11:56:56.126Z,6.40
2017-12-01T11:59:23.704Z,7.05
2017-12-01T12:01:51.240Z,6.80
2017-12-01T12:04:18.821Z,23.75
2017-12-01T12:06:46.406Z,11.10
2017-12-01T12:09:13.947Z,6.18
2017-12-01T12:11:41.477Z,6.40
2017-12-01T12:14:09.054Z,7.10
2017-12-01T12:16:36.585Z,5.87
2017-12-01T12:19:04.157Z,7.03
2017-12-01T12:21:31.690Z,6.93
2017-12-01T12:24:00.037Z,7.47
2017-12-01T12:26:27.569Z,5.62
2017-12-01T12:28:55.150Z,7.40
2017-12-01T12:31:22.687Z,41.75
2017-12-01T12:33:50.260Z,11.93
2017-12-01T12:36:17.798Z,8.20
2017-12-01T12:38:45.376Z,6.93
2017-12-01T12:41:12.908Z,6.70
2017-12-01T12:43:40.477Z,7.55
2017-12-01T12:46:08.003Z,6.55
2017-12-01T12:48:36.344Z,7.12
2017-12-01T12:51:03.867Z,8.02
2017-12-01T12:53:31.437Z,7.95
2017-12-01T12:55:58.963Z,9.07
2017-12-01T12:58:27.303Z,11.48
2017-12-01T13:00:54.832Z,9.93
2017-12-01T13:03:22.407Z,8.13
2017-12-01T13:05:49.931Z,6.80
2017-12-01T13:08:17.507Z,9.80
2017-12-01T13:10:45.038Z,7.28
2017-12-01T13:13:13.381Z,7.78
2017-12-01T13:15:40.914Z,7.32
2017-12-01T13:18:08.495Z,8.50
2017-12-01T13:20:36.027Z,6.90
2017-12-01T13:23:03.615Z,12.05
2017-12-01T13:25:31.157Z,6.55
2017-12-01T13:27:58.737Z,6.70
2017-12-01T13:30:26.260Z,6.55
2017-12-01T13:32:53.840Z,8.35
2017-12-01T13:35:21.367Z,7.10
2017-12-01T13:37:48.940Z,8.50
2017-12-01T13:40:16.473Z,5.97
2017-12-01T13:42:44.833Z,5.95
2017-12-01T13:45:12.443Z,9.88
2017-12-01T13:47:40.032Z,7.32
2017-12-01T13:50:07.664Z,4.55
2017-12-01T13:52:35.241Z,5.97
2017-12-01T13:55:02.764Z,5.82
2017-12-01T13:57:30.351Z,4.80
2017-12-01T13:59:57.881Z,5.82
2017-12-01T14:02:25.453Z,6.15
2017-12-01T14:04:52.984Z,3.80
2017-12-01T14:07:21.320Z,6.50
2017-12-01T14:09:48.859Z,7.05
2017-12-01T14:12:16.436Z,5.28
2017-12-01T14:14:43.976Z,6.20
2017-12-01T14:17:11.553Z,7.87
2017-12-01T14:19:39.100Z,6.70
2017-12-01T14:22:06.676Z,7.15
2017-12-01T14:24:34.210Z,6.32
2017-12-01T14:27:01.784Z,6.70
2017-12-01T14:29:29.316Z,5.25
2017-12-01T14:31:56.899Z,6.60
2017-12-01T14:34:24.432Z,6.03
2017-12-01T14:36:52.004Z,5.60
2017-12-01T14:39:19.573Z,8.77
2017-12-01T14:41:47.149Z,8.52
2017-12-01T14:44:14.683Z,10.23
2017-12-01T14:46:42.268Z,7.97
2017-12-01T14:49:09.802Z,7.50
2017-12-01T14:51:37.377Z,7.45
2017-12-01T14:54:04.913Z,7.57
2017-12-01T14:56:32.490Z,9.30
2017-12-01T14:59:00.028Z,14.00
2017-12-01T15:01:27.606Z,10.93
2017-12-01T15:03:55.132Z,8.82
2017-12-01T15:06:23.477Z,10.57
2017-12-01T15:09:12.372Z,14.52
2017-12-01T15:12:23.022Z,14.35
2017-12-01T15:14:53.589Z,12.00
2017-12-01T15:17:21.160Z,8.38
2017-12-01T15:19:48.690Z,9.98
2017-12-01T15:22:17.032Z,7.55
2017-12-01T15:24:44.563Z,7.70
2017-12-01T15:27:12.226Z,8.55
2017-12-01T15:29:39.758Z,11.02
2017-12-01T15:32:07.416Z,10.02
2017-12-01T15:34:35.723Z,8.98
2017-12-01T15:37:03.298Z,9.30
2017-12-01T15:39:30.842Z,10.75
2017-12-01T15:41:58.419Z,8.52
2017-12-01T15:44:25.954Z,16.55
2017-12-01T15:46:53.624Z,8.48
2017-12-01T15:49:21.160Z,10.23
2017-12-01T15:51:48.728Z,7.68
2017-12-01T15:54:16.259Z,8.93
2017-12-01T15:56:44.605Z,11.80
2017-12-01T15:59:12.143Z,9.38
2017-12-01T16:01:39.717Z,8.85
2017-12-01T16:04:07.254Z,9.20
2017-12-01T16:06:34.830Z,10.20
2017-12-01T16:09:02.356Z,9.95
2017-12-01T16:11:29.934Z,8.75
2017-12-01T16:13:57.473Z,11.23
2017-12-01T16:16:25.061Z,13.35
2017-12-01T16:18:52.600Z,10.25
2017-12-01T16:21:20.140Z,10.50
2017-12-01T16:23:48.480Z,10.90
2017-12-01T16:26:16.019Z,10.85
2017-12-01T16:28:43.597Z,9.77
2017-12-01T16:31:11.135Z,12.30
2017-12-01T16:33:38.714Z,13.88
2017-12-01T16:36:06.246Z,16.98
2017-12-01T16:38:33.834Z,10.95
2017-12-01T16:41:01.369Z,17.33
2017-12-01T16:43:28.949Z,12.75
2017-12-01T16:45:56.481Z,14.32
2017-12-01T16:48:24.151Z,12.00
2017-12-01T16:50:51.679Z,12.77
2017-12-01T16:53:20.020Z,13.25
2017-12-01T16:55:47.560Z,12.23
2017-12-01T16:58:15.137Z,16.60
2017-12-01T17:00:42.682Z,10.77
2017-12-01T17:03:10.260Z,13.95
2017-12-01T17:05:37.789Z,11.55
2017-12-01T17:08:05.359Z,13.93
2017-12-01T17:10:32.894Z,13.70
2017-12-01T17:13:00.473Z,11.65
2017-12-01T17:15:28.032Z,15.77
2017-12-01T17:17:55.607Z,13.95
2017-12-01T17:20:23.146Z,16.90
2017-12-01T17:22:50.728Z,14.85
2017-12-01T17:25:18.264Z,14.85
2017-12-01T17:27:45.853Z,13.75
2017-12-01T17:30:13.385Z,12.07
2017-12-01T17:32:40.954Z,12.88
2017-12-01T17:35:08.485Z,15.50
2017-12-01T17:37:36.067Z,15.15
2017-12-01T17:40:03.599Z,14.48
2017-12-01T17:42:31.179Z,12.55
2017-12-01T17:44:58.713Z,19.42
2017-12-01T17:47:27.052Z,13.20
2017-12-01T17:49:54.579Z,12.05
2017-12-01T17:52:22.153Z,16.10
2017-12-01T17:54:49.720Z,11.82
2017-12-01T17:57:17.311Z,15.35
2017-12-01T17:59:45.605Z,13.48
2017-12-01T18:02:13.944Z,15.13
2017-12-01T18:04:41.477Z,15.30
2017-12-01T18:07:09.060Z,14.40
2017-12-01T18:09:36.591Z,16.08
2017-12-01T18:12:04.165Z,14.05
2017-12-01T18:14:31.695Z,13.23
2017-12-01T18:16:59.277Z,13.10
2017-12-01T18:19:26.913Z,13.32
2017-12-01T18:21:54.488Z,14.52
2017-12-01T18:24:22.016Z,14.65
2017-12-01T18:26:50.355Z,16.80
2017-12-01T18:29:17.892Z,13.68
2017-12-01T18:31:45.468Z,14.50
2017-12-01T18:34:13.003Z,16.98
2017-12-01T18:36:40.592Z,14.20
2017-12-01T18:39:08.124Z,14.35
2017-12-01T18:41:35.660Z,15.10
2017-12-01T18:44:03.241Z,14.27
2017-12-01T18:46:30.768Z,15.02
2017-12-01T18:48:59.109Z,15.45
2017-12-01T18:51:26.644Z,15.70
2017-12-01T18:53:54.301Z,20.02
2017-12-01T18:56:21.833Z,13.55
2017-12-01T18:58:50.175Z,14.55
2017-12-01T19:01:17.714Z,16.23
2017-12-01T19:03:45.293Z,16.25
2017-12-01T19:06:12.832Z,20.00
2017-12-01T19:08:40.477Z,16.80
2017-12-01T19:11:08.016Z,18.92
2017-12-01T19:13:35.596Z,16.37
2017-12-01T19:16:42.180Z,15.85
2017-12-01T19:19:11.958Z,18.17
2017-12-01T19:21:39.662Z,20.88
2017-12-01T19:24:07.248Z,16.87
2017-12-01T19:26:34.781Z,17.27
2017-12-01T19:29:02.356Z,15.63
2017-12-01T19:31:29.929Z,17.08
2017-12-01T19:33:57.548Z,17.87
2017-12-01T19:36:25.097Z,19.05
2017-12-01T19:38:52.681Z,16.92
2017-12-01T19:41:20.260Z,16.62
2017-12-01T19:43:47.841Z,16.77
2017-12-01T19:46:16.149Z,16.65
2017-12-01T19:48:43.728Z,15.38
2017-12-01T19:51:11.264Z,18.08
2017-12-01T19:53:38.945Z,15.52
2017-12-01T19:56:06.811Z,15.38
2017-12-01T19:58:34.387Z,17.52
2017-12-01T20:01:01.916Z,20.15
2017-12-01T20:03:29.499Z,16.85
2017-12-01T20:05:57.032Z,18.23
2017-12-01T20:08:24.612Z,16.70
2017-12-01T20:10:52.144Z,18.02
2017-12-01T20:13:19.724Z,16.05
2017-12-01T20:15:47.255Z,20.10
2017-12-01T20:18:15.599Z,25.30
2017-12-01T20:20:43.166Z,15.00
2017-12-01T20:23:10.743Z,17.85
2017-12-01T20:25:39.043Z,18.85
2017-12-01T20:28:06.634Z,18.27
2017-12-01T20:30:34.209Z,16.98
2017-12-01T20:33:01.955Z,16.55
2017-12-01T20:35:29.512Z,21.42
2017-12-01T20:37:57.088Z,19.42
2017-12-01T20:40:24.670Z,20.73
2017-12-01T20:42:52.252Z,19.92
2017-12-01T20:45:20.595Z,20.10
2017-12-01T20:47:48.182Z,21.12
2017-12-01T20:50:16.488Z,18.37
2017-12-01T20:52:44.105Z,17.55
2017-12-01T20:55:11.641Z,18.75
2017-12-01T20:57:39.176Z,18.98
2017-12-01T21:00:06.753Z,19.02
2017-12-01T21:02:34.287Z,19.30
2017-12-01T21:05:01.863Z,17.67
2017-12-01T21:07:29.419Z,23.20
2017-12-01T21:09:56.992Z,17.98
2017-12-01T21:12:24.603Z,18.20
2017-12-01T21:14:52.999Z,19.48
2017-12-01T21:17:20.586Z,17.20
2017-12-01T21:19:48.164Z,19.17
2017-12-01T21:22:15.701Z,19.70
2017-12-01T21:24:43.308Z,20.58
2017-12-01T21:27:10.846Z,20.42
2017-12-01T21:29:38.639Z,25.05
2017-12-01T21:32:06.940Z,24.33
2017-12-01T21:34:34.525Z,23.00
2017-12-01T21:37:02.053Z,25.55
2017-12-01T21:39:30.454Z,25.05
2017-12-01T21:41:57.998Z,19.70
2017-12-01T21:44:25.605Z,23.20
2017-12-01T21:46:53.139Z,24.55
2017-12-01T21:49:20.716Z,22.58
2017-12-01T21:51:48.367Z,23.27
2017-12-01T21:54:17.635Z,22.85
2017-12-01T21:56:45.337Z,24.87
2017-12-01T21:59:12.867Z,24.60
2017-12-01T22:01:40.412Z,25.55
2017-12-01T22:04:08.836Z,27.67
2017-12-01T22:06:36.432Z,29.12
2017-12-01T22:09:03.974Z,24.27
2017-12-01T22:11:31.602Z,25.05
2017-12-01T22:13:59.178Z,26.45
2017-12-01T22:16:26.927Z,22.17
2017-12-01T22:18:54.535Z,27.00
2017-12-01T22:21:22.105Z,25.92
2017-12-01T22:23:50.516Z,23.80
2017-12-01T22:26:18.113Z,26.15
2017-12-01T22:28:45.653Z,27.75
2017-12-01T22:31:13.213Z,23.65
2017-12-01T22:33:40.800Z,28.55
2017-12-01T22:36:08.376Z,29.58
2017-12-01T22:38:36.675Z,29.77
2017-12-01T22:41:05.001Z,31.92
2017-12-01T22:43:32.557Z,31.10
2017-12-01T22:46:00.089Z,29.60
2017-12-01T22:48:27.672Z,32.38
2017-12-01T22:50:55.204Z,26.20
2017-12-01T22:53:22.748Z,29.48
2017-12-01T22:55:51.070Z,25.88
2017-12-01T22:58:18.601Z,31.27
2017-12-01T23:00:46.164Z,24.73
2017-12-01T23:03:13.708Z,32.35
2017-12-01T23:05:41.280Z,29.48
2017-12-01T23:08:08.819Z,30.40
2017-12-01T23:10:37.141Z,28.20
2017-12-01T23:13:04.675Z,29.75
2017-12-01T23:15:32.247Z,26.52
2017-12-01T23:17:59.811Z,26.85
2017-12-01T23:20:27.341Z,28.05
2017-12-01T23:22:54.920Z,26.90
2017-12-01T23:25:22.456Z,28.35
2017-12-01T23:27:50.756Z,24.63
2017-12-01T23:30:18.312Z,29.60
2017-12-01T23:32:45.851Z,29.30
2017-12-01T23:35:14.173Z,26.48
2017-12-01T23:37:41.740Z,25.45
2017-12-01T23:40:09.273Z,27.58
2017-12-01T23:42:36.852Z,28.67
2017-12-01T23:45:04.388Z,27.40
2017-12-01T23:47:31.956Z,28.17
2017-12-01T23:49:59.528Z,29.23
2017-12-01T23:52:27.099Z,30.37
2017-12-01T23:54:54.738Z,31.58
2017-12-01T23:57:22.304Z,26.15
2017-12-01T23:59:49.877Z,26.27
